Schedule Details

Flight Number: CPX238
Departure: Luis Munoz Marin International Airport (TJSJ) at N/A
Arrival: Miami International Airport (KMIA) at N/A
Route: ACONY3 PALDE FEKKO Y308 FOWEE FLIPR6


Current Weather Information
TJSJ 192256Z 09012KT 10SM FEW029 SCT050 25/20 A3008 RMK AO2 SLP186 T02500200
KMIA 192253Z 10011KT 10SM SCT027 26/21 A3013 RMK AO2 SLP202 T02560206